Forside
METAR-TAF:

METAR-TAF

Lufthavne :

Jaipur, Indien

Breddekreds: 26-49N, længdekreds: 075-48E, højde: 385 m

Aktuelle vejr

Denne rapport blev lavet for 30 minutter siden, kl. 08:00 UTC
Vind 7 kt fra øst
Temperatur 22°C
Fugtighed 53%
Tryk 1020 hPa
Sigt: 3500 m
Spredte skyer i en højde af 10000 ft
tåge/dis

METAR: VIJP 220800Z 08007KT 3500 HZ SCT100 22/12 Q1020 NOSIG

Tid: 14:00 (08:30 UTC)

Vejrudsigter

Denne rapport blev lavet for 3 timer og 30 minutter siden, kl. 05:00 UTC
Foreløbig gælder fra 22 på 06 UTC til 23 på 12 UTC
Vind 5 kt fra nordnordøst
Sigt: 3000 m
Nogle få skyer i en højde af 3000 ft
Spredte skyer i en højde af 10000 ft
tåge/dis
ændring
fra 22 på 07 UTC til 22 på 09 UTC
Sigt: 5000 m
tåge/dis
ændring
fra 22 på 12 UTC til 22 på 14 UTC
Vind 2 kt fra varierende retninger
Sigt: 3000 m
tåge/dis
ændring
fra 23 på 04 UTC til 23 på 06 UTC
Vind 5 kt fra nordnordøst
Sigt: 5000 m
tåge/dis

TAF: VIJP 220500Z 2206/2312 02005KT 3000 HZ FEW030 SCT100 BECMG 2207/2209 5000 HZ BECMG 2212/2214 VRB02KT 3000 HZ BECMG 2304/2306 02005KT 5000 HZ

Vejrobservationer og prognoser fra mere end 4000 lufthavne (METAR og TAF).

De gule og røde prikker repræsenterer de meteorologiske stationer.

Flyt musen over at se navnet på stationen.

Så klik over at se vejr observationer og prognoser.

At skifte det kort: Klik på de grønne knapper med et sort kors for at zoome ind; på den grønne knap med en bindestreg for at zoome ud; eller på de grønne pile for tilstødende kort.


METAR-TAF: